Terminal Aerodrome Forecast
Issued by NWS Dodge City, KS

Home | Current Version | Previous Version | Graphics & Text | Print | Product List | Glossary Off
Versions: 1 2 3 4 5 6 7 8 9 10 11 12 13 14 15 16 17 18 19 20 21 22 23 24 25 26 27 28 29 30 31 32 33 34 35 36 37 38 39 40 41 42

000
FTUS43 KDDC 201724
TAFDDC
TAF
KDDC 201724Z 2018/2118 20013G22KT P6SM FEW110
     FM202300 19011KT P6SM VCTS BKN090CB
      TEMPO 2101/2103 VRB20G30KT 4SM -TSRA BKN040CB
     FM210400 17012KT P6SM BKN120=

USA.gov is the U.S. government's official web portal to all federal, state and local government web resources and services.